Clementson, Minnesota
Current Conditions -  °F | °C
As of 5:53 PM on Sunday 25 Jan 2015 (Local Time) from KBDE Reporting Station
Overcast Overcast  
Wind Chill: 20°   Ceiling: 7500
Heat Index: 20°   Visibility: 10mi
Dew Point: 12°   Wind: 3mph
Humidity: 71%   Direction: 210°SSW
Pressure: 29.92"   Gusts: NA
Location:  48.5595°N, 94.661°W
Report Text: KBDE 252353Z AUTO 21003KT 10SM OVC075 M07/M11 A2992 RMK AO2 SLP158 T10671111 11067 21128 56013 TSNO $
Loading
Personal Weather Stations






























Interactive Weather Map New forecast layout! Learn more

10-Day Weather Forecast

Advertisements
Track Severe Weather on mobile